createdAt,value
2018-09-14T00:00:20.481Z,3.83
2018-09-14T00:02:48.288Z,3.02
2018-09-14T00:05:16.347Z,3.42
2018-09-14T00:07:44.077Z,3.50
2018-09-14T00:10:11.873Z,3.05
2018-09-14T00:12:40.753Z,3.62
2018-09-14T00:15:08.661Z,3.22
2018-09-14T00:17:36.603Z,3.60
2018-09-14T00:20:04.557Z,2.95
2018-09-14T00:22:32.312Z,2.50
2018-09-14T00:25:00.197Z,2.67
2018-09-14T00:27:27.934Z,2.80
2018-09-14T00:29:55.600Z,3.08
2018-09-14T00:32:23.425Z,3.80
2018-09-14T00:34:51.322Z,2.80
2018-09-14T00:37:19.129Z,3.30
2018-09-14T00:39:46.854Z,2.75
2018-09-14T00:42:14.590Z,3.05
2018-09-14T00:44:42.439Z,2.83
2018-09-14T00:47:10.187Z,2.90
2018-09-14T00:49:37.886Z,2.92
2018-09-14T00:52:05.693Z,3.30
2018-09-14T00:54:33.451Z,3.45
2018-09-14T00:57:01.297Z,3.62
2018-09-14T00:59:29.034Z,4.67
2018-09-14T01:01:56.805Z,4.92
2018-09-14T01:04:24.720Z,4.65
2018-09-14T01:06:52.526Z,4.03
2018-09-14T01:09:27.541Z,3.58
2018-09-14T01:11:56.886Z,3.85
2018-09-14T01:14:25.074Z,3.55
2018-09-14T01:16:53.278Z,3.27
2018-09-14T01:19:20.987Z,3.50
2018-09-14T01:21:48.690Z,3.70
2018-09-14T01:24:16.533Z,2.98
2018-09-14T01:26:44.258Z,4.13
2018-09-14T01:29:12.040Z,4.00
2018-09-14T01:31:39.736Z,6.10
2018-09-14T01:34:07.509Z,6.60
2018-09-14T01:36:35.344Z,4.90
2018-09-14T01:39:03.740Z,4.50
2018-09-14T01:41:31.499Z,4.60
2018-09-14T01:43:59.387Z,4.12
2018-09-14T01:46:27.158Z,4.40
2018-09-14T01:48:54.966Z,4.00
2018-09-14T01:51:22.756Z,3.80
2018-09-14T01:53:50.498Z,4.10
2018-09-14T01:56:18.285Z,3.77
2018-09-14T01:58:46.004Z,3.92
2018-09-14T02:01:13.816Z,6.00
2018-09-14T02:03:42.012Z,5.28
2018-09-14T02:06:09.734Z,4.40
2018-09-14T02:08:37.426Z,4.15
2018-09-14T02:11:05.328Z,4.97
2018-09-14T02:13:33.044Z,5.83
2018-09-14T02:16:00.834Z,7.35
2018-09-14T02:18:28.500Z,5.30
2018-09-14T02:20:56.178Z,4.30
2018-09-14T02:23:23.815Z,3.45
2018-09-14T02:25:51.518Z,3.90
2018-09-14T02:28:19.182Z,4.05
2018-09-14T02:30:47.047Z,3.83
2018-09-14T02:33:14.798Z,3.22
2018-09-14T02:35:42.611Z,3.30
2018-09-14T02:38:10.357Z,5.03
2018-09-14T02:40:38.058Z,4.80
2018-09-14T02:43:05.950Z,3.33
2018-09-14T02:45:33.668Z,3.40
2018-09-14T02:48:01.409Z,4.50
2018-09-14T02:50:29.142Z,4.12
2018-09-14T02:52:56.914Z,4.10
2018-09-14T02:55:24.630Z,3.12
2018-09-14T02:57:52.399Z,3.60
2018-09-14T03:00:20.171Z,2.83
2018-09-14T03:02:47.896Z,5.60
2018-09-14T03:05:15.586Z,4.92
2018-09-14T03:07:43.310Z,11.78
2018-09-14T03:10:11.047Z,13.27
2018-09-14T03:12:38.700Z,13.80
2018-09-14T03:15:06.409Z,13.00
2018-09-14T03:17:34.173Z,10.68
2018-09-14T03:20:01.920Z,8.80
2018-09-14T03:22:29.577Z,14.43
2018-09-14T03:24:57.331Z,10.82
2018-09-14T03:27:25.118Z,10.43
2018-09-14T03:29:52.879Z,7.75
2018-09-14T03:32:20.690Z,8.07
2018-09-14T03:34:48.291Z,15.38
2018-09-14T03:37:16.115Z,10.45
2018-09-14T03:39:43.973Z,11.18
2018-09-14T03:42:12.086Z,10.30
2018-09-14T03:44:39.992Z,17.92
2018-09-14T03:47:07.779Z,11.38
2018-09-14T03:49:35.441Z,9.83
2018-09-14T03:52:03.169Z,15.25
2018-09-14T03:54:31.150Z,12.58
2018-09-14T03:57:03.066Z,10.08
2018-09-14T03:59:31.669Z,11.55
2018-09-14T04:01:59.450Z,9.35
2018-09-14T04:04:27.245Z,12.90
2018-09-14T04:06:55.008Z,27.05
2018-09-14T04:09:22.697Z,18.95
2018-09-14T04:11:50.480Z,12.37
2018-09-14T04:14:18.188Z,12.85
2018-09-14T04:16:45.923Z,10.85
2018-09-14T04:19:13.638Z,14.07
2018-09-14T04:21:41.394Z,15.08
2018-09-14T04:24:09.105Z,19.32
2018-09-14T04:26:36.907Z,28.25
2018-09-14T04:29:04.610Z,22.52
2018-09-14T04:31:32.335Z,20.35
2018-09-14T04:34:00.080Z,24.05
2018-09-14T04:36:27.818Z,23.67
2018-09-14T04:38:55.509Z,25.70
2018-09-14T04:41:23.297Z,22.58
2018-09-14T04:43:51.003Z,26.55
2018-09-14T04:46:19.078Z,44.08
2018-09-14T04:48:46.935Z,60.08
2018-09-14T04:51:14.642Z,59.60
2018-09-14T04:53:42.555Z,56.30
2018-09-14T04:56:10.560Z,54.08
2018-09-14T04:58:38.391Z,78.03
2018-09-14T05:01:06.439Z,70.15
2018-09-14T05:03:34.323Z,73.42
2018-09-14T05:06:02.221Z,61.83
2018-09-14T05:08:30.026Z,50.17
2018-09-14T05:10:58.004Z,37.80
2018-09-14T05:13:25.820Z,42.48
2018-09-14T05:15:53.600Z,42.53
2018-09-14T05:18:21.435Z,40.45
2018-09-14T05:20:49.267Z,51.00
2018-09-14T05:23:17.005Z,66.05
2018-09-14T05:25:44.746Z,39.00
2018-09-14T05:28:12.547Z,35.08
2018-09-14T05:30:40.330Z,49.60
2018-09-14T05:33:08.129Z,40.05
2018-09-14T05:35:36.109Z,36.10
2018-09-14T05:38:03.871Z,28.15
2018-09-14T05:40:31.621Z,23.67
2018-09-14T05:42:59.439Z,23.42
2018-09-14T05:45:27.157Z,22.75
2018-09-14T05:47:54.917Z,18.73
2018-09-14T05:50:22.715Z,20.70
2018-09-14T05:52:50.519Z,19.45
2018-09-14T05:55:18.621Z,28.07
2018-09-14T05:57:46.372Z,26.80
2018-09-14T06:00:14.185Z,23.62
2018-09-14T06:02:41.896Z,20.48
2018-09-14T06:05:09.667Z,20.88
2018-09-14T06:07:37.377Z,23.77
2018-09-14T06:10:06.136Z,21.00
2018-09-14T06:12:33.951Z,13.88
2018-09-14T06:15:01.716Z,22.00
2018-09-14T06:17:29.454Z,23.30
2018-09-14T06:19:57.165Z,19.25
2018-09-14T06:22:24.834Z,17.80
2018-09-14T06:24:52.635Z,21.60
2018-09-14T06:27:20.426Z,29.77
2018-09-14T06:29:48.159Z,22.53
2018-09-14T06:32:16.014Z,24.47
2018-09-14T06:34:43.762Z,17.17
2018-09-14T06:37:11.524Z,16.70
2018-09-14T06:39:39.278Z,26.62
2018-09-14T06:42:07.092Z,23.80
2018-09-14T06:44:34.930Z,25.30
2018-09-14T06:47:02.607Z,24.67
2018-09-14T06:49:30.462Z,27.50
2018-09-14T06:51:58.301Z,21.40
2018-09-14T06:54:26.066Z,19.37
2018-09-14T06:56:53.813Z,19.00
2018-09-14T06:59:21.536Z,23.22
2018-09-14T07:01:49.207Z,25.95
2018-09-14T07:04:16.898Z,26.20
2018-09-14T07:06:44.648Z,22.85
2018-09-14T07:09:12.349Z,20.20
2018-09-14T07:11:40.128Z,14.55
2018-09-14T07:14:07.853Z,13.88
2018-09-14T07:16:35.611Z,9.48
2018-09-14T07:19:03.302Z,25.70
2018-09-14T07:21:31.031Z,18.48
2018-09-14T07:23:58.937Z,14.30
2018-09-14T07:26:27.344Z,17.85
2018-09-14T07:28:55.331Z,15.65
2018-09-14T07:31:23.057Z,12.80
2018-09-14T07:33:50.810Z,10.13
2018-09-14T07:36:18.547Z,7.33
2018-09-14T07:38:46.297Z,14.43
2018-09-14T07:41:14.055Z,10.43
2018-09-14T07:43:41.792Z,12.20
2018-09-14T07:46:09.518Z,21.93
2018-09-14T07:48:37.250Z,17.73
2018-09-14T07:51:05.088Z,18.40
2018-09-14T07:53:32.842Z,16.45
2018-09-14T07:56:00.632Z,21.05
2018-09-14T07:58:28.560Z,22.50
2018-09-14T08:00:56.329Z,24.43
2018-09-14T08:03:24.060Z,19.95
2018-09-14T08:05:51.997Z,20.95
2018-09-14T08:08:19.787Z,20.05
2018-09-14T08:10:47.494Z,19.92
2018-09-14T08:13:15.281Z,19.82
2018-09-14T08:15:43.115Z,15.95
2018-09-14T08:18:10.956Z,16.10
2018-09-14T08:20:38.823Z,14.18
2018-09-14T08:23:06.641Z,12.73
2018-09-14T08:25:34.379Z,14.73
2018-09-14T08:28:02.108Z,12.55
2018-09-14T08:30:29.912Z,14.07
2018-09-14T08:32:57.624Z,13.83
2018-09-14T08:35:25.368Z,16.30
2018-09-14T08:37:53.161Z,20.40
2018-09-14T08:40:20.939Z,21.90
2018-09-14T08:42:48.733Z,19.32
2018-09-14T08:45:16.487Z,16.23
2018-09-14T08:47:44.327Z,21.52
2018-09-14T08:50:12.162Z,19.40
2018-09-14T08:52:39.889Z,20.75
2018-09-14T08:55:07.652Z,21.10
2018-09-14T08:57:35.457Z,24.55
2018-09-14T09:00:03.287Z,29.37
2018-09-14T09:02:31.203Z,24.45
2018-09-14T09:04:58.962Z,28.07
2018-09-14T09:07:26.692Z,28.65
2018-09-14T09:09:54.483Z,21.97
2018-09-14T09:12:22.375Z,18.27
2018-09-14T09:14:50.243Z,20.70
2018-09-14T09:17:17.990Z,25.27
2018-09-14T09:19:45.743Z,26.02
2018-09-14T09:22:13.559Z,20.40
2018-09-14T09:24:41.366Z,16.00
2018-09-14T09:27:09.100Z,20.35
2018-09-14T09:29:36.843Z,21.27
2018-09-14T09:32:04.617Z,25.48
2018-09-14T09:34:32.502Z,26.50
2018-09-14T09:37:00.383Z,23.30
2018-09-14T09:39:28.195Z,25.77
2018-09-14T09:41:56.084Z,25.05
2018-09-14T09:44:24.074Z,22.60
2018-09-14T09:46:51.961Z,20.88
2018-09-14T09:49:19.852Z,27.40
2018-09-14T09:51:48.673Z,31.17
2018-09-14T09:54:16.430Z,33.10
2018-09-14T09:56:44.317Z,31.75
2018-09-14T09:59:12.106Z,28.20
2018-09-14T10:01:45.493Z,26.13
2018-09-14T10:04:19.052Z,25.05
2018-09-14T10:06:46.969Z,30.07
2018-09-14T10:09:14.673Z,29.55
2018-09-14T10:11:42.447Z,22.50
2018-09-14T10:14:10.332Z,18.50
2018-09-14T10:16:38.018Z,24.30
2018-09-14T10:19:05.869Z,31.62
2018-09-14T10:21:33.633Z,25.00
2018-09-14T10:24:01.393Z,25.43
2018-09-14T10:26:29.177Z,22.98
2018-09-14T10:28:57.004Z,31.17
2018-09-14T10:31:24.852Z,29.52
2018-09-14T10:33:52.595Z,26.17
2018-09-14T10:36:20.651Z,21.57
2018-09-14T10:38:48.464Z,22.10
2018-09-14T10:41:16.282Z,18.90
2018-09-14T10:43:44.332Z,23.60
2018-09-14T10:46:13.041Z,21.87
2018-09-14T10:48:40.816Z,18.73
2018-09-14T10:51:08.539Z,16.12
2018-09-14T10:53:36.317Z,16.75
2018-09-14T10:56:04.191Z,20.57
2018-09-14T10:58:47.949Z,19.12
2018-09-14T11:01:16.257Z,16.67
2018-09-14T11:03:44.358Z,14.70
2018-09-14T11:06:13.091Z,19.52
2018-09-14T11:08:40.798Z,21.23
2018-09-14T11:11:08.975Z,20.30
2018-09-14T11:13:37.033Z,15.45
2018-09-14T11:16:04.922Z,16.35
2018-09-14T11:18:32.722Z,16.45
2018-09-14T11:21:00.576Z,15.40
2018-09-14T11:23:28.358Z,15.05
2018-09-14T11:25:56.020Z,12.85
2018-09-14T11:28:25.300Z,12.20
2018-09-14T11:30:53.026Z,12.55
2018-09-14T11:33:20.798Z,10.95
2018-09-14T11:35:48.577Z,11.03
2018-09-14T11:38:16.438Z,12.45
2018-09-14T11:40:44.158Z,15.48
2018-09-14T11:43:11.995Z,11.90
2018-09-14T11:45:40.290Z,18.25
2018-09-14T11:48:08.278Z,13.60
2018-09-14T11:50:35.975Z,12.47
2018-09-14T11:53:03.778Z,12.75
2018-09-14T11:55:31.547Z,10.95
2018-09-14T11:57:59.366Z,9.43
2018-09-14T12:00:27.136Z,8.83
2018-09-14T12:02:54.912Z,8.75
2018-09-14T12:05:22.622Z,8.88
2018-09-14T12:07:50.311Z,8.75
2018-09-14T12:10:18.039Z,11.25
2018-09-14T12:12:45.732Z,12.63
2018-09-14T12:15:13.503Z,13.80
2018-09-14T12:17:41.252Z,13.08
2018-09-14T12:20:09.085Z,10.70
2018-09-14T12:22:36.820Z,11.35
2018-09-14T12:25:04.642Z,16.07
2018-09-14T12:27:32.382Z,12.37
2018-09-14T12:30:00.231Z,12.70
2018-09-14T12:32:28.002Z,10.93
2018-09-14T12:34:55.769Z,11.18
2018-09-14T12:37:23.541Z,9.83
2018-09-14T12:39:51.227Z,9.43
2018-09-14T12:42:18.962Z,8.73
2018-09-14T12:44:46.710Z,8.93
2018-09-14T12:47:14.413Z,7.50
2018-09-14T12:49:42.191Z,7.08
2018-09-14T12:52:10.139Z,7.33
2018-09-14T12:54:37.883Z,7.10
2018-09-14T12:57:05.591Z,6.87
2018-09-14T12:59:33.336Z,10.72
2018-09-14T13:02:01.141Z,10.82
2018-09-14T13:04:29.022Z,11.03
2018-09-14T13:06:56.803Z,9.50
2018-09-14T13:09:24.575Z,8.47
2018-09-14T13:11:52.302Z,10.30
2018-09-14T13:14:21.162Z,9.75
2018-09-14T13:16:49.413Z,7.55
2018-09-14T13:19:17.138Z,7.72
2018-09-14T13:21:44.875Z,7.10
2018-09-14T13:24:14.848Z,7.50
2018-09-14T13:26:42.583Z,7.03
2018-09-14T13:29:10.431Z,6.80
2018-09-14T13:31:38.136Z,6.75
2018-09-14T13:34:05.887Z,6.92
2018-09-14T13:36:33.705Z,7.17
2018-09-14T13:39:01.413Z,7.42
2018-09-14T13:41:29.487Z,6.33
2018-09-14T13:43:57.390Z,5.97
2018-09-14T13:46:25.165Z,5.83
2018-09-14T13:48:52.938Z,6.37
2018-09-14T13:51:20.616Z,5.95
2018-09-14T13:53:48.315Z,5.28
2018-09-14T13:56:16.061Z,5.05
2018-09-14T13:58:43.853Z,4.58
2018-09-14T14:01:11.644Z,4.37
2018-09-14T14:03:39.345Z,4.15
2018-09-14T14:06:07.173Z,4.53
2018-09-14T14:08:34.886Z,4.22
2018-09-14T14:11:02.632Z,5.83
2018-09-14T14:13:30.356Z,5.20
2018-09-14T14:15:58.089Z,4.97
2018-09-14T14:18:25.850Z,4.53
2018-09-14T14:20:53.632Z,5.33
2018-09-14T14:23:21.353Z,4.60
2018-09-14T14:25:49.126Z,4.65
2018-09-14T14:28:16.842Z,4.37
2018-09-14T14:30:44.552Z,4.13
2018-09-14T14:33:12.335Z,3.60
2018-09-14T14:35:40.186Z,3.67
2018-09-14T14:38:07.882Z,3.50
2018-09-14T14:40:35.597Z,3.27
2018-09-14T14:43:03.305Z,3.00
2018-09-14T14:45:31.020Z,2.98
2018-09-14T14:47:58.749Z,2.90
2018-09-14T14:50:26.465Z,3.65
2018-09-14T14:52:54.904Z,3.40
2018-09-14T14:55:22.685Z,3.62
2018-09-14T14:57:50.749Z,3.80
2018-09-14T15:00:18.483Z,4.50
2018-09-14T15:02:46.440Z,4.12
2018-09-14T15:05:14.333Z,4.80
2018-09-14T15:07:42.146Z,5.13
2018-09-14T15:10:09.865Z,5.75
2018-09-14T15:12:37.779Z,7.42
2018-09-14T15:15:06.045Z,9.15
2018-09-14T15:17:33.845Z,10.65
2018-09-14T15:20:01.793Z,11.05
2018-09-14T15:22:29.644Z,12.15
2018-09-14T15:24:57.429Z,13.48
2018-09-14T15:27:25.193Z,15.50
2018-09-14T15:29:52.972Z,12.95
2018-09-14T15:32:20.693Z,15.83
2018-09-14T15:34:48.423Z,16.10
2018-09-14T15:37:16.312Z,18.87
2018-09-14T15:39:44.023Z,20.88
2018-09-14T15:42:11.809Z,19.52
2018-09-14T15:44:39.544Z,17.12
2018-09-14T15:47:07.338Z,15.38
2018-09-14T15:49:35.216Z,14.95
2018-09-14T15:52:02.918Z,15.78
2018-09-14T15:54:30.683Z,14.73
2018-09-14T15:56:58.739Z,16.23
2018-09-14T15:59:26.429Z,13.53
2018-09-14T16:01:54.205Z,14.55
2018-09-14T16:04:21.929Z,20.57
2018-09-14T16:06:49.613Z,20.60
2018-09-14T16:09:17.366Z,19.15
2018-09-14T16:11:45.054Z,21.52
2018-09-14T16:14:12.765Z,20.20
2018-09-14T16:16:40.590Z,17.73
2018-09-14T16:19:08.264Z,14.90
2018-09-14T16:21:35.966Z,15.80
2018-09-14T16:24:03.890Z,16.85
2018-09-14T16:26:31.709Z,14.00
2018-09-14T16:28:59.525Z,14.20
2018-09-14T16:31:27.352Z,14.53
2018-09-14T16:33:55.106Z,15.32
2018-09-14T16:36:23.312Z,16.40
2018-09-14T16:38:51.019Z,15.90
2018-09-14T16:41:19.018Z,15.58
2018-09-14T16:43:46.780Z,16.60
2018-09-14T16:46:14.622Z,15.32
2018-09-14T16:48:42.386Z,15.48
2018-09-14T16:51:10.574Z,17.90
2018-09-14T16:53:38.481Z,18.60
2018-09-14T16:56:06.362Z,15.00
2018-09-14T16:58:34.224Z,13.18
2018-09-14T17:01:01.943Z,13.35
2018-09-14T17:03:30.139Z,12.37
2018-09-14T17:05:57.842Z,12.47
2018-09-14T17:08:25.875Z,11.38
2018-09-14T17:10:53.622Z,10.23
2018-09-14T17:13:21.428Z,12.60
2018-09-14T17:15:49.327Z,14.40
2018-09-14T17:18:17.128Z,11.85
2018-09-14T17:20:44.898Z,10.20
2018-09-14T17:23:12.656Z,9.18
2018-09-14T17:25:40.487Z,11.83
2018-09-14T17:28:08.217Z,11.25
2018-09-14T17:30:36.308Z,12.80
2018-09-14T17:33:04.064Z,11.00
2018-09-14T17:35:31.867Z,10.63
2018-09-14T17:38:00.070Z,8.55
2018-09-14T17:40:27.793Z,9.73
2018-09-14T17:42:55.549Z,11.45
2018-09-14T17:45:23.293Z,9.50
2018-09-14T17:47:51.012Z,8.63
2018-09-14T17:50:18.786Z,7.22
2018-09-14T17:52:46.485Z,6.95
2018-09-14T17:55:14.312Z,7.17
2018-09-14T17:57:42.008Z,6.65
2018-09-14T18:00:09.737Z,6.92
2018-09-14T18:02:37.463Z,8.48
2018-09-14T18:05:05.246Z,8.35
2018-09-14T18:07:32.942Z,7.22
2018-09-14T18:10:00.695Z,8.85
2018-09-14T18:12:28.412Z,10.72
2018-09-14T18:14:56.185Z,10.38
2018-09-14T18:17:23.925Z,10.57
2018-09-14T18:19:51.728Z,11.60
2018-09-14T18:22:19.472Z,13.25
2018-09-14T18:24:47.228Z,12.05
2018-09-14T18:27:14.951Z,14.43
2018-09-14T18:29:42.702Z,16.30
2018-09-14T18:32:10.501Z,13.35
2018-09-14T18:34:38.189Z,12.20
2018-09-14T18:37:06.094Z,12.95
2018-09-14T18:39:34.113Z,12.43
2018-09-14T18:42:01.902Z,11.50
2018-09-14T18:44:29.733Z,9.17
2018-09-14T18:46:57.485Z,8.63
2018-09-14T18:49:25.366Z,8.70
2018-09-14T18:51:53.136Z,8.33
2018-09-14T18:54:20.944Z,7.92
2018-09-14T18:56:48.726Z,8.40
2018-09-14T18:59:16.657Z,7.85
2018-09-14T19:01:44.381Z,7.67
2018-09-14T19:04:12.200Z,7.17
2018-09-14T19:06:39.942Z,6.83
2018-09-14T19:09:09.163Z,6.60
2018-09-14T19:11:37.126Z,6.33
2018-09-14T19:14:04.929Z,7.22
2018-09-14T19:16:32.934Z,5.50
2018-09-14T19:19:00.724Z,5.72
2018-09-14T19:21:29.334Z,4.78
2018-09-14T19:23:57.119Z,4.45
2018-09-14T19:26:24.908Z,4.72
2018-09-14T19:28:52.650Z,4.72
2018-09-14T19:31:20.426Z,5.00
2018-09-14T19:33:48.207Z,6.03
2018-09-14T19:36:15.977Z,5.08
2018-09-14T19:38:43.810Z,4.83
2018-09-14T19:41:11.877Z,4.37
2018-09-14T19:43:39.651Z,4.92
2018-09-14T19:46:07.439Z,6.00
2018-09-14T19:48:35.207Z,5.67
2018-09-14T19:51:02.932Z,6.28
2018-09-14T19:53:30.737Z,6.50
2018-09-14T19:55:58.521Z,7.58
2018-09-14T19:58:26.329Z,6.85
2018-09-14T20:00:54.124Z,6.47
2018-09-14T20:03:21.798Z,5.25
2018-09-14T20:05:49.545Z,5.78
2018-09-14T20:08:17.318Z,4.25
2018-09-14T20:10:45.103Z,5.12
2018-09-14T20:13:12.914Z,5.12
2018-09-14T20:15:40.638Z,6.92
2018-09-14T20:18:08.920Z,7.90
2018-09-14T20:20:36.705Z,7.00
2018-09-14T20:23:04.442Z,7.03
2018-09-14T20:25:32.170Z,6.58
2018-09-14T20:28:00.076Z,6.40
2018-09-14T20:30:28.071Z,6.40
2018-09-14T20:32:59.224Z,7.10
2018-09-14T20:35:27.368Z,9.90
2018-09-14T20:37:55.153Z,15.80
2018-09-14T20:40:22.915Z,17.25
2018-09-14T20:42:51.764Z,16.48
2018-09-14T20:45:19.641Z,15.03
2018-09-14T20:47:47.503Z,12.43
2018-09-14T20:50:16.676Z,10.82
2018-09-14T20:52:44.680Z,9.40
2018-09-14T20:55:13.014Z,7.87
2018-09-14T20:57:41.299Z,7.40
2018-09-14T21:00:09.705Z,8.40
2018-09-14T21:02:39.311Z,10.05
2018-09-14T21:05:07.542Z,8.70
2018-09-14T21:07:35.423Z,7.22
2018-09-14T21:10:03.250Z,7.60
2018-09-14T21:12:31.351Z,7.83
2018-09-14T21:15:00.102Z,7.53
2018-09-14T21:17:28.936Z,8.83
2018-09-14T21:19:56.815Z,10.72
2018-09-14T21:22:24.605Z,8.40
2018-09-14T21:24:52.558Z,7.37
2018-09-14T21:27:21.610Z,8.78
2018-09-14T21:29:49.364Z,9.23
2018-09-14T21:32:17.184Z,8.70
2018-09-14T21:34:45.042Z,6.62
2018-09-14T21:37:13.187Z,6.83
2018-09-14T21:39:41.049Z,7.62
2018-09-14T21:42:09.002Z,6.62
2018-09-14T21:44:37.147Z,6.97
2018-09-14T21:47:05.028Z,6.08
2018-09-14T21:49:35.747Z,6.47
2018-09-14T21:52:03.607Z,7.58
2018-09-14T21:54:35.914Z,7.05
2018-09-14T21:57:04.480Z,5.95
2018-09-14T21:59:32.325Z,6.40
2018-09-14T22:02:00.386Z,6.50
2018-09-14T22:04:28.289Z,5.90
2018-09-14T22:06:56.361Z,7.08
2018-09-14T22:09:25.641Z,5.70
2018-09-14T22:11:53.686Z,6.05
2018-09-14T22:14:21.997Z,6.90
2018-09-14T22:16:50.005Z,6.42
2018-09-14T22:19:17.868Z,7.15
2018-09-14T22:21:47.129Z,7.17
2018-09-14T22:24:15.106Z,6.78
2018-09-14T22:26:43.109Z,6.42
2018-09-14T22:29:11.051Z,6.15
2018-09-14T22:31:39.523Z,7.93
2018-09-14T22:34:07.315Z,6.45
2018-09-14T22:36:35.137Z,6.35
2018-09-14T22:39:03.495Z,7.97
2018-09-14T22:41:31.232Z,5.85
2018-09-14T22:43:58.993Z,5.30
2018-09-14T22:46:26.813Z,5.97
2018-09-14T22:48:54.536Z,5.20
2018-09-14T22:51:22.240Z,5.75
2018-09-14T22:53:50.079Z,5.72
2018-09-14T22:56:17.834Z,4.87
2018-09-14T22:58:45.571Z,4.08
2018-09-14T23:01:15.610Z,4.50
2018-09-14T23:03:43.759Z,4.43
2018-09-14T23:06:11.527Z,4.53
2018-09-14T23:08:39.268Z,4.30
2018-09-14T23:11:07.529Z,4.75
2018-09-14T23:13:35.441Z,5.25
2018-09-14T23:16:03.206Z,5.25
2018-09-14T23:18:31.604Z,5.33
2018-09-14T23:21:00.246Z,5.30
2018-09-14T23:23:28.159Z,5.55
2018-09-14T23:25:57.922Z,5.83
2018-09-14T23:28:25.618Z,5.72
2018-09-14T23:30:53.342Z,5.43
2018-09-14T23:33:21.139Z,5.65
2018-09-14T23:35:48.903Z,6.20
2018-09-14T23:38:16.673Z,5.87
2018-09-14T23:40:44.407Z,6.08
2018-09-14T23:43:12.119Z,5.42
2018-09-14T23:45:39.825Z,6.50
2018-09-14T23:48:07.602Z,6.75
2018-09-14T23:50:35.334Z,5.70
2018-09-14T23:53:03.037Z,5.92
2018-09-14T23:55:30.827Z,6.42
2018-09-14T23:57:58.602Z,6.28
